Time;durP1;ratioP1;P1;durP2;ratioP2;P2;SDS_P1;SDS_P2;PMS_P1;PMS_P2;Temp;Humidity;BMP_temperature;BMP_pressure;BME280_temperature;BME280_humidity;BME280_pressure;Samples;Min_cycle;Max_cycle;Signal;HPM_P1;HPM_P2
2022/09/25 00:00:08;;;;;;;;;;;;;;;;;;5033381;28;20363;-68
2022/09/25 00:02:34;;;;;;;;;;;;;;;;;;5033501;28;20440;-67
2022/09/25 00:05:00;;;;;;;;;;;;;;;;;;5032858;28;20206;-67
2022/09/25 00:07:26;;;;;;;;;;;;;;;;;;5033667;28;20283;-66
2022/09/25 00:09:52;;;;;;;;;;;;;;;;;;5033253;28;20128;-66
2022/09/25 00:12:17;;;;;;;;;;;;;;;;;;5033378;28;19943;-66
2022/09/25 00:14:43;;;;;;;;;;;;;;;;;;5033551;28;20021;-65
2022/09/25 00:17:09;;;;;;;;;;;;;;;;;;5033409;28;19953;-66
2022/09/25 00:19:50;;;;;;;;;;;;;;;;;;5032553;28;20266;-66
2022/09/25 00:22:16;;;;;;;;;;;;;;;;;;5028414;28;19905;-66
2022/09/25 00:24:42;;;;;;;;;;;;;;;;;;5033381;28;19912;-65
2022/09/25 00:27:08;;;;;;;;;;;;;;;;;;5032807;28;20279;-66
2022/09/25 00:29:34;;;;;;;;;;;;;;;;;;5032989;28;20131;-66
2022/09/25 00:32:00;;;;;;;;;;;;;;;;;;5033152;28;19905;-65
2022/09/25 00:34:26;;;;;;;;;;;;;;;;;;5026085;28;19909;-65
2022/09/25 00:36:52;;;;;;;;;;;;;;;;;;5032948;28;20276;-66
2022/09/25 00:39:17;;;;;;;;;;;;;;;;;;5032623;28;20362;-65
2022/09/25 00:41:43;;;;;;;;;;;;;;;;;;5033269;28;20218;-66
2022/09/25 00:44:09;;;;;;;;;;;;;;;;;;5032660;28;20196;-65
2022/09/25 00:46:35;;;;;;;;;;;;;;;;;;5032667;28;20274;-66
2022/09/25 00:49:02;;;;;;;;;;;;;;;;;;5031698;28;20220;-66
2022/09/25 00:51:28;;;;;;;;;;;;;;;;;;5032154;28;19920;-66
2022/09/25 00:53:54;;;;;;;;;;;;;;;;;;5032601;28;19909;-64
2022/09/25 00:56:20;;;;;;;;;;;;;;;;;;5030806;28;20258;-65
2022/09/25 00:58:46;;;;;;;;;;;;;;;;;;5032658;28;20381;-64
2022/09/25 01:01:13;;;;;;;;;;;;;;;;;;5032132;28;20747;-65
2022/09/25 01:03:38;;;;;;;;;;;;;;;;;;5032181;28;20375;-64
2022/09/25 01:06:04;;;;;;;;;;;;;;;;;;5032655;28;20154;-65
2022/09/25 01:08:30;;;;;;;;;;;;;;;;;;5032274;28;19939;-64
2022/09/25 01:10:56;;;;;;;;;;;;;;;;;;5031870;28;20450;-65
2022/09/25 01:13:22;;;;;;;;;;;;;;;;;;5032487;28;20289;-64
2022/09/25 01:15:48;;;;;;;;;;;;;;;;;;5025765;28;20538;-67
2022/09/25 01:18:14;;;;;;;;;;;;;;;;;;5031318;28;20344;-66
2022/09/25 01:20:40;;;;;;;;;;;;;;;;;;5030958;28;20377;-67
2022/09/25 01:23:06;;;;;;;;;;;;;;;;;;5031423;28;20842;-66
2022/09/25 01:25:32;;;;;;;;;;;;;;;;;;5032177;28;20247;-66
2022/09/25 01:27:58;;;;;;;;;;;;;;;;;;5030110;28;20359;-66
2022/09/25 01:30:26;;;;;;;;;;;;;;;;;;5031431;28;20450;-66
2022/09/25 01:32:52;;;;;;;;;;;;;;;;;;5030981;28;20360;-66
2022/09/25 01:35:19;;;;;;;;;;;;;;;;;;5031181;28;20435;-66
2022/09/25 01:37:45;;;;;;;;;;;;;;;;;;5031574;28;20370;-65
2022/09/25 01:40:11;;;;;;;;;;;;;;;;;;5031795;28;20338;-66
2022/09/25 01:42:37;;;;;;;;;;;;;;;;;;5031393;28;20943;-65
2022/09/25 01:45:03;;;;;;;;;;;;;;;;;;5030014;28;20406;-66
2022/09/25 01:47:28;;;;;;;;;;;;;;;;;;5031195;28;20394;-65
2022/09/25 01:49:54;;;;;;;;;;;;;;;;;;5025079;28;20373;-65
2022/09/25 01:52:21;;;;;;;;;;;;;;;;;;5031742;28;20446;-66
2022/09/25 01:54:47;;;;;;;;;;;;;;;;;;5031297;28;20362;-65
2022/09/25 01:57:13;;;;;;;;;;;;;;;;;;5031075;28;20366;-66
2022/09/25 01:59:39;;;;;;;;;;;;;;;;;;5031033;28;20365;-64
2022/09/25 02:02:05;;;;;;;;;;;;;;;;;;5030199;28;20460;-67
2022/09/25 02:04:31;;;;;;;;;;;;;;;;;;5031151;28;20828;-65
2022/09/25 02:06:56;;;;;;;;;;;;;;;;;;5030684;28;20783;-66
2022/09/25 02:09:23;;;;;;;;;;;;;;;;;;5030789;28;20359;-65
2022/09/25 02:11:48;;;;;;;;;;;;;;;;;;5031524;28;20413;-66
2022/09/25 02:14:14;;;;;;;;;;;;;;;;;;5031198;28;20353;-66
2022/09/25 02:16:43;;;;;;;;;;;;;;;;;;5029935;28;20366;-63
2022/09/25 02:21:54;;;;;;;;;;;;;;;;;;5028405;28;20400;-66
2022/09/25 02:24:19;;;;;;;;;;;;;;;;;;5030714;28;20362;-66
2022/09/25 02:26:45;;;;;;;;;;;;;;;;;;5030609;28;20371;-66
2022/09/25 02:29:11;;;;;;;;;;;;;;;;;;5030706;28;20378;-66
2022/09/25 02:31:39;;;;;;;;;;;;;;;;;;5030864;28;20371;-66
2022/09/25 02:34:05;;;;;;;;;;;;;;;;;;5030960;28;20524;-64
2022/09/25 02:36:32;;;;;;;;;;;;;;;;;;5026484;28;20276;-66
2022/09/25 02:38:58;;;;;;;;;;;;;;;;;;5029470;28;20378;-66
2022/09/25 02:41:24;;;;;;;;;;;;;;;;;;5031203;28;20743;-66
2022/09/25 02:43:50;;;;;;;;;;;;;;;;;;5030436;28;20344;-66
2022/09/25 02:46:16;;;;;;;;;;;;;;;;;;5028084;28;20838;-66
2022/09/25 02:48:42;;;;;;;;;;;;;;;;;;5030673;28;20884;-65
2022/09/25 02:51:07;;;;;;;;;;;;;;;;;;5030734;28;20393;-66
2022/09/25 02:53:33;;;;;;;;;;;;;;;;;;5030626;28;20397;-64
2022/09/25 02:55:59;;;;;;;;;;;;;;;;;;5030547;28;20420;-67
2022/09/25 02:58:25;;;;;;;;;;;;;;;;;;5030697;28;20119;-66
2022/09/25 03:00:51;;;;;;;;;;;;;;;;;;5031077;28;20401;-66
2022/09/25 03:03:17;;;;;;;;;;;;;;;;;;5030803;28;20376;-66
2022/09/25 03:05:43;;;;;;;;;;;;;;;;;;5030708;28;20368;-65
2022/09/25 03:10:53;;;;;;;;;;;;;;;;;;5030936;28;20602;-66
2022/09/25 03:13:20;;;;;;;;;;;;;;;;;;5032321;28;20580;-65
2022/09/25 03:15:46;;;;;;;;;;;;;;;;;;5034459;28;20199;-67
2022/09/25 03:18:12;;;;;;;;;;;;;;;;;;5032717;28;20352;-67
2022/09/25 03:20:39;;;;;;;;;;;;;;;;;;5032571;28;20371;-66
2022/09/25 03:23:05;;;;;;;;;;;;;;;;;;5034032;28;20850;-64
2022/09/25 03:25:31;;;;;;;;;;;;;;;;;;5034176;28;20258;-67
2022/09/25 03:27:57;;;;;;;;;;;;;;;;;;5033449;28;20421;-65
2022/09/25 03:30:23;;;;;;;;;;;;;;;;;;5034183;28;20000;-66
2022/09/25 03:32:49;;;;;;;;;;;;;;;;;;5034335;28;20290;-66
2022/09/25 03:35:15;;;;;;;;;;;;;;;;;;5033858;28;20181;-65
2022/09/25 03:37:41;;;;;;;;;;;;;;;;;;5033761;28;20381;-66
2022/09/25 03:40:07;;;;;;;;;;;;;;;;;;5034318;28;19944;-66
2022/09/25 03:42:33;;;;;;;;;;;;;;;;;;5033442;28;20149;-65
2022/09/25 03:44:58;;;;;;;;;;;;;;;;;;5027451;28;19917;-65
2022/09/25 03:47:24;;;;;;;;;;;;;;;;;;5033586;28;19913;-64
2022/09/25 03:49:50;;;;;;;;;;;;;;;;;;5033913;28;19958;-65
2022/09/25 03:52:17;;;;;;;;;;;;;;;;;;5033001;28;20492;-66
2022/09/25 03:54:43;;;;;;;;;;;;;;;;;;5033655;28;20146;-65
2022/09/25 03:57:11;;;;;;;;;;;;;;;;;;5032752;28;19940;-66
2022/09/25 03:59:37;;;;;;;;;;;;;;;;;;5033083;28;20239;-67
2022/09/25 04:02:03;;;;;;;;;;;;;;;;;;5026532;28;20190;-63
2022/09/25 04:04:28;;;;;;;;;;;;;;;;;;5033126;28;19905;-65
2022/09/25 04:06:54;;;;;;;;;;;;;;;;;;5033006;28;20109;-64
2022/09/25 04:09:20;;;;;;;;;;;;;;;;;;5032752;28;19913;-65
2022/09/25 04:11:46;;;;;;;;;;;;;;;;;;5032625;28;20278;-65
2022/09/25 04:14:13;;;;;;;;;;;;;;;;;;5033686;28;20158;-65
2022/09/25 04:16:39;;;;;;;;;;;;;;;;;;5033055;28;20341;-65
2022/09/25 04:19:05;;;;;;;;;;;;;;;;;;5032869;28;20476;-65
2022/09/25 04:21:31;;;;;;;;;;;;;;;;;;5033178;28;20384;-66
2022/09/25 04:26:42;;;;;;;;;;;;;;;;;;5032191;28;20374;-64
2022/09/25 04:29:07;;;;;;;;;;;;;;;;;;5032715;28;20379;-66
2022/09/25 04:31:33;;;;;;;;;;;;;;;;;;5032562;28;20397;-65
2022/09/25 04:34:00;;;;;;;;;;;;;;;;;;5026128;28;20115;-65
2022/09/25 04:36:26;;;;;;;;;;;;;;;;;;5032387;28;20116;-66
2022/09/25 04:38:52;;;;;;;;;;;;;;;;;;5032519;28;20313;-65
2022/09/25 04:41:18;;;;;;;;;;;;;;;;;;5032172;28;19944;-63
2022/09/25 04:43:44;;;;;;;;;;;;;;;;;;5029401;28;20251;-65
2022/09/25 04:46:10;;;;;;;;;;;;;;;;;;5032198;28;20378;-65
2022/09/25 04:48:36;;;;;;;;;;;;;;;;;;5032549;28;20490;-65
2022/09/25 04:51:02;;;;;;;;;;;;;;;;;;5032693;28;20446;-65
2022/09/25 04:53:28;;;;;;;;;;;;;;;;;;5032751;28;20570;-65
2022/09/25 04:55:54;;;;;;;;;;;;;;;;;;5032001;28;20244;-65
2022/09/25 04:58:20;;;;;;;;;;;;;;;;;;5032213;28;20293;-64
2022/09/25 05:00:46;;;;;;;;;;;;;;;;;;5031303;28;20366;-64
2022/09/25 05:03:12;;;;;;;;;;;;;;;;;;5032633;28;20374;-65
2022/09/25 05:05:38;;;;;;;;;;;;;;;;;;5032173;28;20355;-63
2022/09/25 05:08:04;;;;;;;;;;;;;;;;;;5032211;28;20294;-65
2022/09/25 05:10:30;;;;;;;;;;;;;;;;;;5031569;28;20350;-65
2022/09/25 05:12:56;;;;;;;;;;;;;;;;;;5029889;28;20359;-67
2022/09/25 05:15:22;;;;;;;;;;;;;;;;;;5032016;28;20786;-65
2022/09/25 05:17:47;;;;;;;;;;;;;;;;;;5031170;28;20836;-66
2022/09/25 05:20:13;;;;;;;;;;;;;;;;;;5032345;28;20839;-66
2022/09/25 05:22:39;;;;;;;;;;;;;;;;;;5032447;28;20363;-65
2022/09/25 05:25:05;;;;;;;;;;;;;;;;;;5024991;28;20833;-65
2022/09/25 05:27:31;;;;;;;;;;;;;;;;;;5030420;28;20418;-66
2022/09/25 05:30:00;;;;;;;;;;;;;;;;;;5031849;28;20363;-65
2022/09/25 05:32:26;;;;;;;;;;;;;;;;;;5031988;28;20370;-64
2022/09/25 05:34:52;;;;;;;;;;;;;;;;;;5031505;28;20331;-64
2022/09/25 05:37:18;;;;;;;;;;;;;;;;;;5031507;28;20477;-66
2022/09/25 05:39:44;;;;;;;;;;;;;;;;;;5031140;28;20462;-65
2022/09/25 05:42:10;;;;;;;;;;;;;;;;;;5030181;28;20835;-65
2022/09/25 05:44:38;;;;;;;;;;;;;;;;;;5030989;28;20407;-64
2022/09/25 05:47:05;;;;;;;;;;;;;;;;;;5029914;28;20420;-65
2022/09/25 05:49:31;;;;;;;;;;;;;;;;;;5031656;28;20262;-66
2022/09/25 05:51:57;;;;;;;;;;;;;;;;;;5030724;28;20779;-64
2022/09/25 05:54:23;;;;;;;;;;;;;;;;;;5031035;28;20371;-65
2022/09/25 05:56:48;;;;;;;;;;;;;;;;;;5031367;28;20350;-64
2022/09/25 05:59:14;;;;;;;;;;;;;;;;;;5031238;28;20349;-66
2022/09/25 06:01:40;;;;;;;;;;;;;;;;;;5031366;28;20421;-66
2022/09/25 06:04:06;;;;;;;;;;;;;;;;;;5031117;28;20454;-65
2022/09/25 06:06:32;;;;;;;;;;;;;;;;;;5030474;28;20375;-66
2022/09/25 06:08:58;;;;;;;;;;;;;;;;;;5030877;28;20398;-65
2022/09/25 06:11:24;;;;;;;;;;;;;;;;;;5031266;28;20366;-64
2022/09/25 06:13:50;;;;;;;;;;;;;;;;;;5031170;28;20297;-63
2022/09/25 06:16:18;;;;;;;;;;;;;;;;;;5031182;28;20422;-65
2022/09/25 06:18:44;;;;;;;;;;;;;;;;;;5030838;28;20438;-65
2022/09/25 06:21:09;;;;;;;;;;;;;;;;;;5030643;28;21001;-66
2022/09/25 06:23:35;;;;;;;;;;;;;;;;;;5029145;28;20221;-66
2022/09/25 06:26:01;;;;;;;;;;;;;;;;;;5030956;28;20309;-66
2022/09/25 06:28:30;;;;;;;;;;;;;;;;;;5029503;28;20898;-66
2022/09/25 06:30:56;;;;;;;;;;;;;;;;;;5031169;28;20379;-65
2022/09/25 06:33:22;;;;;;;;;;;;;;;;;;5030949;28;20365;-66
2022/09/25 06:35:49;;;;;;;;;;;;;;;;;;5030242;28;20897;-66
2022/09/25 06:38:15;;;;;;;;;;;;;;;;;;5029768;28;20250;-66
2022/09/25 06:40:41;;;;;;;;;;;;;;;;;;5030439;28;20220;-66
2022/09/25 06:43:07;;;;;;;;;;;;;;;;;;5024718;28;20257;-65
2022/09/25 06:45:33;;;;;;;;;;;;;;;;;;5030332;28;20133;-65
2022/09/25 06:47:59;;;;;;;;;;;;;;;;;;5030917;28;20259;-65
2022/09/25 06:50:30;;;;;;;;;;;;;;;;;;5034233;28;20824;-63
2022/09/25 06:52:56;;;;;;;;;;;;;;;;;;5034156;28;19909;-65
2022/09/25 06:55:22;;;;;;;;;;;;;;;;;;5034799;28;19915;-63
2022/09/25 06:57:48;;;;;;;;;;;;;;;;;;5034281;28;20724;-66
2022/09/25 07:00:14;;;;;;;;;;;;;;;;;;5034555;28;20367;-64
2022/09/25 07:05:25;;;;;;;;;;;;;;;;;;5028493;28;20384;-66
2022/09/25 07:07:51;;;;;;;;;;;;;;;;;;5033607;28;20815;-65
2022/09/25 07:10:17;;;;;;;;;;;;;;;;;;5033529;28;20413;-66
2022/09/25 07:12:43;;;;;;;;;;;;;;;;;;5032271;28;20135;-66
2022/09/25 07:15:10;;;;;;;;;;;;;;;;;;5026889;28;20708;-66
2022/09/25 07:17:36;;;;;;;;;;;;;;;;;;5033487;28;20362;-65
2022/09/25 07:20:02;;;;;;;;;;;;;;;;;;5033408;28;20374;-65
2022/09/25 07:22:28;;;;;;;;;;;;;;;;;;5033553;28;20445;-66
2022/09/25 07:24:54;;;;;;;;;;;;;;;;;;5032721;28;20115;-65
2022/09/25 07:27:20;;;;;;;;;;;;;;;;;;5033513;28;20438;-64
2022/09/25 07:29:46;;;;;;;;;;;;;;;;;;5033906;28;20442;-65
2022/09/25 07:32:11;;;;;;;;;;;;;;;;;;5033415;28;20629;-64
2022/09/25 07:34:37;;;;;;;;;;;;;;;;;;5033163;28;19912;-61
2022/09/25 07:37:03;;;;;;;;;;;;;;;;;;5032578;28;20434;-65
2022/09/25 07:39:29;;;;;;;;;;;;;;;;;;5030546;28;20804;-72
2022/09/25 07:41:55;;;;;;;;;;;;;;;;;;5035599;28;20415;-74
2022/09/25 07:44:21;;;;;;;;;;;;;;;;;;5030267;28;20406;-75
2022/09/25 07:46:47;;;;;;;;;;;;;;;;;;5031812;28;20228;-73
2022/09/25 07:49:13;;;;;;;;;;;;;;;;;;5031870;28;20206;-76
2022/09/25 07:51:39;;;;;;;;;;;;;;;;;;5030812;28;20498;-75
2022/09/25 07:54:05;;;;;;;;;;;;;;;;;;5032718;28;20728;-77
2022/09/25 07:56:33;;;;;;;;;;;;;;;;;;4942118;28;20889;-75
2022/09/25 07:58:59;;;;;;;;;;;;;;;;;;4830967;28;20268;-75
2022/09/25 08:01:25;;;;;;;;;;;;;;;;;;4801975;28;20238;-76
2022/09/25 08:03:51;;;;;;;;;;;;;;;;;;4779190;28;20126;-75
2022/09/25 08:06:16;;;;;;;;;;;;;;;;;;4834928;28;20242;-74
2022/09/25 08:08:43;;;;;;;;;;;;;;;;;;4830583;28;20565;-73
2022/09/25 08:11:10;;;;;;;;;;;;;;;;;;4843181;28;20250;-76
2022/09/25 08:13:39;;;;;;;;;;;;;;;;;;4893032;28;20278;-76
2022/09/25 08:16:05;;;;;;;;;;;;;;;;;;5030137;28;20351;-75
2022/09/25 08:18:31;;;;;;;;;;;;;;;;;;5029463;28;21109;-76
2022/09/25 08:20:56;;;;;;;;;;;;;;;;;;5029076;28;20445;-76
2022/09/25 08:23:22;;;;;;;;;;;;;;;;;;5030728;28;20450;-75
2022/09/25 08:25:48;;;;;;;;;;;;;;;;;;5023787;28;20362;-75
2022/09/25 08:28:14;;;;;;;;;;;;;;;;;;5027509;28;20371;-76
2022/09/25 08:30:42;;;;;;;;;;;;;;;;;;4904131;28;21176;-77
2022/09/25 08:33:09;;;;;;;;;;;;;;;;;;5030922;28;20391;-70
2022/09/25 08:35:35;;;;;;;;;;;;;;;;;;4951430;28;20927;-74
2022/09/25 08:38:01;;;;;;;;;;;;;;;;;;4826628;28;20728;-76
2022/09/25 08:40:27;;;;;;;;;;;;;;;;;;4999094;28;20393;-72
2022/09/25 08:42:53;;;;;;;;;;;;;;;;;;5009661;28;20458;-78
2022/09/25 08:50:52;;;;;;;;;;;;;;;;;;5006988;28;20382;-77
2022/09/25 08:53:18;;;;;;;;;;;;;;;;;;5026864;28;20477;-71
2022/09/25 08:58:28;;;;;;;;;;;;;;;;;;4893874;28;20374;-77
2022/09/25 09:00:54;;;;;;;;;;;;;;;;;;4964803;28;20394;-78
2022/09/25 09:03:20;;;;;;;;;;;;;;;;;;5015607;28;20344;-80
2022/09/25 09:05:46;;;;;;;;;;;;;;;;;;5025705;28;20360;-78
2022/09/25 09:08:12;;;;;;;;;;;;;;;;;;5004424;28;20383;-77
2022/09/25 09:10:38;;;;;;;;;;;;;;;;;;5028915;28;20320;-76
2022/09/25 09:13:04;;;;;;;;;;;;;;;;;;5030512;28;20354;-77
2022/09/25 09:15:29;;;;;;;;;;;;;;;;;;5022883;28;20320;-76
2022/09/25 09:17:55;;;;;;;;;;;;;;;;;;5027139;28;20824;-78
2022/09/25 09:20:21;;;;;;;;;;;;;;;;;;5030479;28;20333;-78
2022/09/25 09:22:47;;;;;;;;;;;;;;;;;;5030473;28;20406;-78
2022/09/25 09:25:13;;;;;;;;;;;;;;;;;;5027222;28;20366;-76
2022/09/25 09:27:39;;;;;;;;;;;;;;;;;;5026017;28;20856;-75
2022/09/25 09:30:05;;;;;;;;;;;;;;;;;;5002124;28;20326;-73
2022/09/25 09:32:31;;;;;;;;;;;;;;;;;;5029507;28;20854;-73
2022/09/25 09:34:57;;;;;;;;;;;;;;;;;;5030456;28;20232;-75
2022/09/25 09:37:23;;;;;;;;;;;;;;;;;;5029923;28;20431;-74
2022/09/25 09:39:49;;;;;;;;;;;;;;;;;;5021210;28;20303;-74
2022/09/25 09:42:16;;;;;;;;;;;;;;;;;;4992270;28;20356;-74
2022/09/25 09:44:42;;;;;;;;;;;;;;;;;;5023485;28;20952;-72
2022/09/25 09:47:08;;;;;;;;;;;;;;;;;;5026060;28;20350;-76
2022/09/25 09:49:34;;;;;;;;;;;;;;;;;;5021209;28;20421;-77
2022/09/25 09:52:01;;;;;;;;;;;;;;;;;;5022487;28;20499;-75
2022/09/25 09:54:27;;;;;;;;;;;;;;;;;;5025651;28;20755;-72
2022/09/25 09:56:54;;;;;;;;;;;;;;;;;;5016480;28;20364;-72
2022/09/25 09:59:20;;;;;;;;;;;;;;;;;;5023612;28;20303;-74
2022/09/25 10:01:45;;;;;;;;;;;;;;;;;;5024454;28;20333;-74
2022/09/25 10:04:11;;;;;;;;;;;;;;;;;;5028579;28;20341;-74
2022/09/25 10:06:37;;;;;;;;;;;;;;;;;;5028931;28;20255;-73
2022/09/25 10:09:03;;;;;;;;;;;;;;;;;;5014910;28;20396;-71
2022/09/25 10:11:30;;;;;;;;;;;;;;;;;;5021910;28;20451;-71
2022/09/25 10:13:58;;;;;;;;;;;;;;;;;;4939653;28;21174;-77
2022/09/25 10:16:24;;;;;;;;;;;;;;;;;;4878439;28;20330;-77
2022/09/25 10:18:51;;;;;;;;;;;;;;;;;;5021286;28;20918;-77
2022/09/25 10:21:17;;;;;;;;;;;;;;;;;;5019022;28;20370;-71
2022/09/25 10:23:43;;;;;;;;;;;;;;;;;;5021756;28;20441;-72
2022/09/25 10:26:09;;;;;;;;;;;;;;;;;;5004008;28;20377;-73
2022/09/25 10:28:35;;;;;;;;;;;;;;;;;;5023542;28;20429;-76
2022/09/25 10:31:01;;;;;;;;;;;;;;;;;;5030096;28;20365;-74
2022/09/25 10:33:27;;;;;;;;;;;;;;;;;;5029528;28;20131;-75
2022/09/25 10:35:53;;;;;;;;;;;;;;;;;;5026981;28;20413;-76
2022/09/25 10:38:19;;;;;;;;;;;;;;;;;;5029150;28;20370;-68
2022/09/25 10:40:46;;;;;;;;;;;;;;;;;;4998643;28;20375;-68
2022/09/25 10:43:12;;;;;;;;;;;;;;;;;;5015327;28;20256;-67
2022/09/25 10:45:39;;;;;;;;;;;;;;;;;;5024806;28;20467;-69
2022/09/25 10:50:51;;;;;;;;;;;;;;;;;;5027014;28;20825;-67
2022/09/25 10:53:16;;;;;;;;;;;;;;;;;;5025943;28;20390;-68
2022/09/25 10:55:50;;;;;;;;;;;;;;;;;;5025231;28;20387;-67
2022/09/25 10:58:16;;;;;;;;;;;;;;;;;;5028414;28;20371;-66
2022/09/25 11:00:42;;;;;;;;;;;;;;;;;;5029068;28;20382;-68
2022/09/25 11:03:08;;;;;;;;;;;;;;;;;;5029130;28;20366;-68
2022/09/25 11:05:37;;;;;;;;;;;;;;;;;;5029160;28;21073;-68
2022/09/25 11:08:04;;;;;;;;;;;;;;;;;;5027712;28;20343;-69
2022/09/25 11:10:30;;;;;;;;;;;;;;;;;;5028044;28;20348;-68
2022/09/25 11:12:56;;;;;;;;;;;;;;;;;;5028716;28;20376;-68
2022/09/25 11:15:22;;;;;;;;;;;;;;;;;;5026233;28;20371;-67
2022/09/25 11:17:48;;;;;;;;;;;;;;;;;;5027007;28;19932;-67
2022/09/25 11:20:15;;;;;;;;;;;;;;;;;;5028091;28;20369;-69
2022/09/25 11:22:41;;;;;;;;;;;;;;;;;;5028855;28;20835;-68
2022/09/25 11:25:07;;;;;;;;;;;;;;;;;;5027127;28;20365;-68
2022/09/25 11:27:32;;;;;;;;;;;;;;;;;;5023639;28;20355;-68
2022/09/25 11:29:59;;;;;;;;;;;;;;;;;;4978558;28;20752;-67
2022/09/25 11:32:25;;;;;;;;;;;;;;;;;;4773514;28;20176;-67
2022/09/25 11:34:51;;;;;;;;;;;;;;;;;;4930830;28;20293;-69
2022/09/25 11:37:17;;;;;;;;;;;;;;;;;;5020915;28;20398;-68
2022/09/25 11:42:32;;;;;;;;;;;;;;;;;;4984044;28;20792;-67
2022/09/25 11:44:58;;;;;;;;;;;;;;;;;;4989387;28;21053;-69
2022/09/25 11:47:24;;;;;;;;;;;;;;;;;;4989221;28;20467;-66
2022/09/25 11:49:52;;;;;;;;;;;;;;;;;;4989497;28;20426;-68
2022/09/25 11:52:17;;;;;;;;;;;;;;;;;;4987457;28;20455;-69
2022/09/25 11:54:43;;;;;;;;;;;;;;;;;;4989760;28;20909;-69
2022/09/25 11:57:09;;;;;;;;;;;;;;;;;;4954384;28;20400;-68
2022/09/25 11:59:38;;;;;;;;;;;;;;;;;;4939873;28;20168;-69
2022/09/25 12:02:04;;;;;;;;;;;;;;;;;;4990118;28;20377;-67
2022/09/25 12:04:30;;;;;;;;;;;;;;;;;;4989889;28;20447;-68
2022/09/25 12:06:57;;;;;;;;;;;;;;;;;;4989430;28;20508;-68
2022/09/25 12:09:23;;;;;;;;;;;;;;;;;;4987420;28;20240;-67
2022/09/25 12:11:48;;;;;;;;;;;;;;;;;;4986115;28;20339;-69
2022/09/25 12:14:16;;;;;;;;;;;;;;;;;;4955767;28;20254;-67
2022/09/25 12:16:41;;;;;;;;;;;;;;;;;;4800212;28;20323;-68
2022/09/25 12:19:09;;;;;;;;;;;;;;;;;;4768572;28;20264;-67
2022/09/25 12:21:35;;;;;;;;;;;;;;;;;;4769648;28;20161;-68
2022/09/25 12:24:01;;;;;;;;;;;;;;;;;;4782102;28;20648;-67
2022/09/25 12:26:27;;;;;;;;;;;;;;;;;;4968271;28;20332;-68
2022/09/25 12:28:53;;;;;;;;;;;;;;;;;;5029206;28;20876;-67
2022/09/25 12:31:19;;;;;;;;;;;;;;;;;;5010843;28;20378;-68
2022/09/25 12:33:44;;;;;;;;;;;;;;;;;;4774901;28;20141;-68
2022/09/25 12:36:10;;;;;;;;;;;;;;;;;;4771542;28;20149;-68
2022/09/25 12:38:37;;;;;;;;;;;;;;;;;;4880734;28;20259;-67
2022/09/25 12:41:04;;;;;;;;;;;;;;;;;;5030827;28;20368;-67
2022/09/25 12:43:32;;;;;;;;;;;;;;;;;;5024033;28;20721;-69
2022/09/25 12:45:58;;;;;;;;;;;;;;;;;;5028229;28;20397;-68
2022/09/25 12:48:24;;;;;;;;;;;;;;;;;;5026394;28;20847;-67
2022/09/25 12:50:50;;;;;;;;;;;;;;;;;;5010708;28;20275;-67
2022/09/25 12:53:15;;;;;;;;;;;;;;;;;;4959965;28;20247;-67
2022/09/25 12:55:41;;;;;;;;;;;;;;;;;;5022597;28;20381;-67
2022/09/25 12:58:07;;;;;;;;;;;;;;;;;;5027014;28;20374;-68
2022/09/25 13:00:33;;;;;;;;;;;;;;;;;;5028201;28;21183;-69
2022/09/25 13:02:59;;;;;;;;;;;;;;;;;;5029634;28;20367;-69
2022/09/25 13:05:25;;;;;;;;;;;;;;;;;;5030234;28;20401;-68
2022/09/25 13:07:51;;;;;;;;;;;;;;;;;;5029122;28;20433;-69
2022/09/25 13:10:17;;;;;;;;;;;;;;;;;;4954400;28;20834;-68
2022/09/25 13:12:43;;;;;;;;;;;;;;;;;;5019811;28;20247;-67
2022/09/25 13:15:09;;;;;;;;;;;;;;;;;;5029282;28;20364;-67
2022/09/25 13:17:35;;;;;;;;;;;;;;;;;;5030697;28;20399;-68
2022/09/25 13:20:01;;;;;;;;;;;;;;;;;;5029873;28;20371;-68
2022/09/25 13:22:26;;;;;;;;;;;;;;;;;;5026400;28;20577;-68
2022/09/25 13:24:52;;;;;;;;;;;;;;;;;;5030103;28;20375;-68
2022/09/25 13:27:20;;;;;;;;;;;;;;;;;;5030051;28;20371;-67
2022/09/25 13:29:46;;;;;;;;;;;;;;;;;;5024477;28;20433;-67
2022/09/25 13:32:12;;;;;;;;;;;;;;;;;;5029857;28;20379;-68
2022/09/25 13:34:38;;;;;;;;;;;;;;;;;;5029304;28;20368;-69
2022/09/25 13:37:04;;;;;;;;;;;;;;;;;;5022436;28;20383;-67
2022/09/25 13:42:14;;;;;;;;;;;;;;;;;;5030054;28;20349;-68
2022/09/25 13:44:41;;;;;;;;;;;;;;;;;;5025943;28;20370;-67
2022/09/25 13:47:06;;;;;;;;;;;;;;;;;;5016357;28;20407;-67
2022/09/25 13:49:32;;;;;;;;;;;;;;;;;;5022692;28;20878;-67
2022/09/25 13:51:58;;;;;;;;;;;;;;;;;;5027157;28;20363;-68
2022/09/25 13:54:24;;;;;;;;;;;;;;;;;;5014935;28;20830;-67
2022/09/25 13:56:53;;;;;;;;;;;;;;;;;;5027726;28;20376;-66
2022/09/25 13:59:19;;;;;;;;;;;;;;;;;;5019863;28;20868;-67
2022/09/25 14:01:44;;;;;;;;;;;;;;;;;;5020773;28;20464;-67
2022/09/25 14:04:10;;;;;;;;;;;;;;;;;;5027008;28;20442;-68
2022/09/25 14:06:38;;;;;;;;;;;;;;;;;;5017363;28;20781;-67
2022/09/25 14:09:04;;;;;;;;;;;;;;;;;;5005527;28;20731;-66
2022/09/25 14:11:30;;;;;;;;;;;;;;;;;;5027459;28;20458;-66
2022/09/25 14:13:56;;;;;;;;;;;;;;;;;;5005919;28;20445;-65
2022/09/25 14:16:24;;;;;;;;;;;;;;;;;;4818523;28;20164;-66
2022/09/25 14:18:50;;;;;;;;;;;;;;;;;;4947409;28;20270;-65
2022/09/25 14:21:16;;;;;;;;;;;;;;;;;;4807057;28;20322;-67
2022/09/25 14:23:42;;;;;;;;;;;;;;;;;;4813960;28;20393;-67
2022/09/25 14:26:08;;;;;;;;;;;;;;;;;;4772894;28;20170;-67
2022/09/25 14:28:34;;;;;;;;;;;;;;;;;;4888863;28;20361;-67
2022/09/25 14:31:00;;;;;;;;;;;;;;;;;;5022077;28;20249;-67
2022/09/25 14:33:27;;;;;;;;;;;;;;;;;;5028258;28;20394;-66
2022/09/25 14:35:53;;;;;;;;;;;;;;;;;;4958138;28;20321;-67
2022/09/25 14:38:19;;;;;;;;;;;;;;;;;;5029630;28;20371;-67
2022/09/25 14:40:45;;;;;;;;;;;;;;;;;;5029138;28;20396;-66
2022/09/25 14:43:12;;;;;;;;;;;;;;;;;;5029445;28;20432;-67
2022/09/25 14:45:38;;;;;;;;;;;;;;;;;;5029368;28;20857;-65
2022/09/25 14:48:04;;;;;;;;;;;;;;;;;;5029718;28;20432;-67
2022/09/25 14:50:30;;;;;;;;;;;;;;;;;;5029016;28;20371;-66
2022/09/25 14:52:56;;;;;;;;;;;;;;;;;;4990912;28;20420;-66
2022/09/25 14:55:23;;;;;;;;;;;;;;;;;;5020064;28;20244;-66
2022/09/25 14:57:49;;;;;;;;;;;;;;;;;;5028254;28;20386;-66
2022/09/25 15:00:15;;;;;;;;;;;;;;;;;;5028659;28;20376;-68
2022/09/25 15:02:41;;;;;;;;;;;;;;;;;;5027362;28;20429;-67
2022/09/25 15:05:06;;;;;;;;;;;;;;;;;;5025185;28;20454;-68
2022/09/25 15:07:32;;;;;;;;;;;;;;;;;;5025878;28;20371;-66
2022/09/25 15:09:59;;;;;;;;;;;;;;;;;;4987532;28;21206;-66
2022/09/25 15:12:25;;;;;;;;;;;;;;;;;;5026320;28;20293;-66
2022/09/25 15:14:51;;;;;;;;;;;;;;;;;;5033162;28;20353;-68
2022/09/25 15:17:20;;;;;;;;;;;;;;;;;;5033713;28;20811;-68
2022/09/25 15:19:47;;;;;;;;;;;;;;;;;;5027983;28;20378;-65
2022/09/25 15:22:13;;;;;;;;;;;;;;;;;;5034373;28;20374;-66
2022/09/25 15:24:38;;;;;;;;;;;;;;;;;;5026858;28;20818;-66
2022/09/25 15:27:05;;;;;;;;;;;;;;;;;;5032052;28;20227;-67
2022/09/25 15:29:31;;;;;;;;;;;;;;;;;;5032643;28;20465;-66
2022/09/25 15:31:57;;;;;;;;;;;;;;;;;;5033772;28;20463;-66
2022/09/25 15:34:23;;;;;;;;;;;;;;;;;;5033494;28;20457;-67
2022/09/25 15:36:49;;;;;;;;;;;;;;;;;;5033678;28;20383;-66
2022/09/25 15:39:15;;;;;;;;;;;;;;;;;;5033597;28;20780;-67
2022/09/25 15:41:42;;;;;;;;;;;;;;;;;;5033417;28;20402;-66
2022/09/25 15:44:07;;;;;;;;;;;;;;;;;;5033737;28;20378;-66
2022/09/25 15:46:33;;;;;;;;;;;;;;;;;;5033220;28;20826;-67
2022/09/25 15:48:59;;;;;;;;;;;;;;;;;;5033032;28;20477;-67
2022/09/25 15:51:28;;;;;;;;;;;;;;;;;;5021959;28;20363;-66
2022/09/25 15:53:54;;;;;;;;;;;;;;;;;;5011782;28;20513;-67
2022/09/25 15:56:19;;;;;;;;;;;;;;;;;;5024874;28;20916;-66
2022/09/25 15:58:45;;;;;;;;;;;;;;;;;;5030950;28;20477;-67
2022/09/25 16:06:41;;;;;;;;;;;;;;;;;;4856316;28;20844;-67
2022/09/25 16:09:07;;;;;;;;;;;;;;;;;;4910004;28;20345;-67
2022/09/25 16:11:33;;;;;;;;;;;;;;;;;;5017971;28;20349;-66
2022/09/25 16:13:59;;;;;;;;;;;;;;;;;;5032981;28;20376;-67
2022/09/25 16:16:28;;;;;;;;;;;;;;;;;;5031852;28;20450;-68
2022/09/25 16:18:55;;;;;;;;;;;;;;;;;;5009101;28;20374;-66
2022/09/25 16:21:22;;;;;;;;;;;;;;;;;;5000833;28;20822;-66
2022/09/25 16:23:48;;;;;;;;;;;;;;;;;;5026821;28;20362;-66
2022/09/25 16:26:13;;;;;;;;;;;;;;;;;;5032909;28;20374;-67
2022/09/25 16:28:39;;;;;;;;;;;;;;;;;;5032945;28;20498;-66
2022/09/25 16:31:05;;;;;;;;;;;;;;;;;;4783317;28;20369;-67
2022/09/25 16:33:31;;;;;;;;;;;;;;;;;;4767983;28;20142;-66
2022/09/25 16:35:57;;;;;;;;;;;;;;;;;;4791551;28;20672;-66
2022/09/25 16:38:23;;;;;;;;;;;;;;;;;;5032259;28;20464;-68
2022/09/25 16:40:49;;;;;;;;;;;;;;;;;;5032577;28;20375;-67
2022/09/25 16:43:16;;;;;;;;;;;;;;;;;;4946257;28;20356;-67
2022/09/25 16:45:42;;;;;;;;;;;;;;;;;;5031880;28;20390;-65
2022/09/25 16:48:08;;;;;;;;;;;;;;;;;;4977747;28;20798;-67
2022/09/25 16:50:34;;;;;;;;;;;;;;;;;;4769678;28;20279;-66
2022/09/25 16:53:02;;;;;;;;;;;;;;;;;;4769664;28;20146;-66
2022/09/25 16:55:29;;;;;;;;;;;;;;;;;;4769834;28;20140;-65
2022/09/25 16:57:54;;;;;;;;;;;;;;;;;;4768530;28;20189;-67
2022/09/25 17:00:20;;;;;;;;;;;;;;;;;;4764324;28;20162;-66
2022/09/25 17:02:46;;;;;;;;;;;;;;;;;;4765988;28;20166;-67
2022/09/25 17:05:16;;;;;;;;;;;;;;;;;;4767003;28;20172;-67
2022/09/25 17:07:42;;;;;;;;;;;;;;;;;;4764371;28;20184;-67
2022/09/25 17:10:08;;;;;;;;;;;;;;;;;;4764252;28;20205;-66